Terminal Aerodrome Forecast
Issued by NWS Mt. Holly, NJ

Home | Current Version | Previous Version | Text Only | Print | Product List | Glossary On
Versions: 1 2 3 4 5 6 7 8 9 10 11 12 13 14 15
000
FTUS41 KPHI 051134
TAFILG
TAF
KILG 051134Z 0512/0612 23008KT P6SM FEW050 SCT100
      TEMPO 0513/0517 -SHRA BKN100
     FM051900 27006KT P6SM BKN050
      TEMPO 0521/0524 6SM -SHRA
     FM060000 VRB03KT P6SM -SHRA OVC050
     FM060900 02004KT P6SM OVC050=

USA.gov is the U.S. government's official web portal to all federal, state and local government web resources and services.